sensor_id;sensor_type;location;lat;lon;timestamp;P1;durP1;ratioP1;P2;durP2;ratioP2
71836;SDS011;59686;51.716;7.016;2022-11-15T00:00:55;7.70;;;6.30;;
71836;SDS011;59686;51.716;7.016;2022-11-15T00:03:22;8.33;;;6.83;;
71836;SDS011;59686;51.716;7.016;2022-11-15T00:05:49;8.23;;;6.50;;
71836;SDS011;59686;51.716;7.016;2022-11-15T00:08:14;7.23;;;6.10;;
71836;SDS011;59686;51.716;7.016;2022-11-15T00:10:40;7.80;;;6.37;;
71836;SDS011;59686;51.716;7.016;2022-11-15T00:13:07;7.80;;;6.30;;
71836;SDS011;59686;51.716;7.016;2022-11-15T00:15:37;7.47;;;6.13;;
71836;SDS011;59686;51.716;7.016;2022-11-15T00:18:04;9.43;;;6.97;;
71836;SDS011;59686;51.716;7.016;2022-11-15T00:20:31;8.07;;;6.80;;
71836;SDS011;59686;51.716;7.016;2022-11-15T00:22:58;7.77;;;6.30;;
71836;SDS011;59686;51.716;7.016;2022-11-15T00:25:24;7.83;;;6.40;;
71836;SDS011;59686;51.716;7.016;2022-11-15T00:27:50;6.83;;;5.90;;
71836;SDS011;59686;51.716;7.016;2022-11-15T00:30:19;6.83;;;5.87;;
71836;SDS011;59686;51.716;7.016;2022-11-15T00:32:45;8.30;;;6.30;;
71836;SDS011;59686;51.716;7.016;2022-11-15T00:35:10;9.17;;;6.73;;
71836;SDS011;59686;51.716;7.016;2022-11-15T00:37:36;11.13;;;6.90;;
71836;SDS011;59686;51.716;7.016;2022-11-15T00:40:02;7.53;;;5.83;;
71836;SDS011;59686;51.716;7.016;2022-11-15T00:42:27;8.73;;;6.80;;
71836;SDS011;59686;51.716;7.016;2022-11-15T00:44:53;8.20;;;6.30;;
71836;SDS011;59686;51.716;7.016;2022-11-15T00:47:19;7.80;;;6.53;;
71836;SDS011;59686;51.716;7.016;2022-11-15T00:49:44;8.57;;;6.30;;
71836;SDS011;59686;51.716;7.016;2022-11-15T00:52:10;9.03;;;6.40;;
71836;SDS011;59686;51.716;7.016;2022-11-15T00:54:35;9.27;;;6.70;;
71836;SDS011;59686;51.716;7.016;2022-11-15T00:57:01;7.50;;;5.87;;
71836;SDS011;59686;51.716;7.016;2022-11-15T00:59:27;8.50;;;6.30;;
71836;SDS011;59686;51.716;7.016;2022-11-15T01:01:55;7.03;;;5.93;;
71836;SDS011;59686;51.716;7.016;2022-11-15T01:04:21;7.03;;;6.10;;
71836;SDS011;59686;51.716;7.016;2022-11-15T01:06:47;8.07;;;6.13;;
71836;SDS011;59686;51.716;7.016;2022-11-15T01:09:12;6.97;;;5.83;;
71836;SDS011;59686;51.716;7.016;2022-11-15T01:11:38;8.33;;;5.83;;
71836;SDS011;59686;51.716;7.016;2022-11-15T01:14:06;7.63;;;6.27;;
71836;SDS011;59686;51.716;7.016;2022-11-15T01:16:32;7.37;;;6.20;;
71836;SDS011;59686;51.716;7.016;2022-11-15T01:18:58;7.73;;;6.27;;
71836;SDS011;59686;51.716;7.016;2022-11-15T01:21:24;7.53;;;5.90;;
71836;SDS011;59686;51.716;7.016;2022-11-15T01:23:53;9.17;;;6.30;;
71836;SDS011;59686;51.716;7.016;2022-11-15T01:26:20;8.07;;;6.20;;
71836;SDS011;59686;51.716;7.016;2022-11-15T01:28:46;7.53;;;6.10;;
71836;SDS011;59686;51.716;7.016;2022-11-15T01:31:12;7.73;;;6.53;;
71836;SDS011;59686;51.716;7.016;2022-11-15T01:33:40;8.00;;;6.50;;
71836;SDS011;59686;51.716;7.016;2022-11-15T01:36:07;7.70;;;5.90;;
71836;SDS011;59686;51.716;7.016;2022-11-15T01:38:36;8.10;;;6.47;;
71836;SDS011;59686;51.716;7.016;2022-11-15T01:41:01;8.80;;;6.90;;
71836;SDS011;59686;51.716;7.016;2022-11-15T01:43:29;7.03;;;5.90;;
71836;SDS011;59686;51.716;7.016;2022-11-15T01:46:02;7.60;;;6.13;;
71836;SDS011;59686;51.716;7.016;2022-11-15T01:48:34;7.47;;;5.70;;
71836;SDS011;59686;51.716;7.016;2022-11-15T01:51:01;6.20;;;5.60;;
71836;SDS011;59686;51.716;7.016;2022-11-15T01:53:28;7.70;;;6.00;;
71836;SDS011;59686;51.716;7.016;2022-11-15T01:55:56;7.43;;;6.20;;
71836;SDS011;59686;51.716;7.016;2022-11-15T01:58:23;7.23;;;5.77;;
71836;SDS011;59686;51.716;7.016;2022-11-15T02:00:49;6.67;;;5.77;;
71836;SDS011;59686;51.716;7.016;2022-11-15T02:03:16;6.83;;;5.97;;
71836;SDS011;59686;51.716;7.016;2022-11-15T02:05:42;7.83;;;5.93;;
71836;SDS011;59686;51.716;7.016;2022-11-15T02:08:08;6.70;;;5.70;;
71836;SDS011;59686;51.716;7.016;2022-11-15T02:10:45;8.17;;;6.17;;
71836;SDS011;59686;51.716;7.016;2022-11-15T02:13:12;6.70;;;5.97;;
71836;SDS011;59686;51.716;7.016;2022-11-15T02:15:46;6.93;;;5.53;;
71836;SDS011;59686;51.716;7.016;2022-11-15T02:18:35;6.83;;;5.43;;
71836;SDS011;59686;51.716;7.016;2022-11-15T02:32:18;7.87;;;6.10;;
71836;SDS011;59686;51.716;7.016;2022-11-15T02:37:47;7.87;;;5.67;;
71836;SDS011;59686;51.716;7.016;2022-11-15T02:42:52;7.30;;;5.70;;
71836;SDS011;59686;51.716;7.016;2022-11-15T02:45:42;6.83;;;5.60;;
71836;SDS011;59686;51.716;7.016;2022-11-15T02:48:15;7.00;;;6.20;;
71836;SDS011;59686;51.716;7.016;2022-11-15T02:50:43;7.97;;;5.80;;
71836;SDS011;59686;51.716;7.016;2022-11-15T02:53:09;6.97;;;5.67;;
71836;SDS011;59686;51.716;7.016;2022-11-15T02:55:36;7.27;;;6.10;;
71836;SDS011;59686;51.716;7.016;2022-11-15T03:07:09;6.10;;;5.00;;
71836;SDS011;59686;51.716;7.016;2022-11-15T03:10:02;8.17;;;5.60;;
71836;SDS011;59686;51.716;7.016;2022-11-15T03:12:46;6.53;;;5.57;;
71836;SDS011;59686;51.716;7.016;2022-11-15T03:15:32;7.27;;;5.37;;
71836;SDS011;59686;51.716;7.016;2022-11-15T03:18:19;6.60;;;5.70;;
71836;SDS011;59686;51.716;7.016;2022-11-15T03:20:55;6.70;;;5.20;;
71836;SDS011;59686;51.716;7.016;2022-11-15T03:26:16;6.47;;;5.43;;
71836;SDS011;59686;51.716;7.016;2022-11-15T03:28:55;7.10;;;5.27;;
71836;SDS011;59686;51.716;7.016;2022-11-15T03:31:32;5.70;;;4.63;;
71836;SDS011;59686;51.716;7.016;2022-11-15T03:36:47;5.87;;;5.00;;
71836;SDS011;59686;51.716;7.016;2022-11-15T03:39:16;6.77;;;4.60;;
71836;SDS011;59686;51.716;7.016;2022-11-15T03:41:50;6.37;;;5.27;;
71836;SDS011;59686;51.716;7.016;2022-11-15T03:44:28;6.23;;;5.13;;
71836;SDS011;59686;51.716;7.016;2022-11-15T03:49:35;6.83;;;4.90;;
71836;SDS011;59686;51.716;7.016;2022-11-15T03:52:03;6.00;;;4.97;;
71836;SDS011;59686;51.716;7.016;2022-11-15T03:57:19;6.60;;;4.80;;
71836;SDS011;59686;51.716;7.016;2022-11-15T03:59:45;6.60;;;4.90;;
71836;SDS011;59686;51.716;7.016;2022-11-15T04:02:10;5.63;;;4.10;;
71836;SDS011;59686;51.716;7.016;2022-11-15T04:04:38;6.47;;;4.80;;
71836;SDS011;59686;51.716;7.016;2022-11-15T04:07:04;5.70;;;4.30;;
71836;SDS011;59686;51.716;7.016;2022-11-15T04:09:29;5.90;;;4.83;;
71836;SDS011;59686;51.716;7.016;2022-11-15T04:11:55;5.93;;;4.60;;
71836;SDS011;59686;51.716;7.016;2022-11-15T04:14:21;6.37;;;5.30;;
71836;SDS011;59686;51.716;7.016;2022-11-15T04:16:46;6.07;;;4.83;;
71836;SDS011;59686;51.716;7.016;2022-11-15T04:19:12;4.90;;;4.20;;
71836;SDS011;59686;51.716;7.016;2022-11-15T04:21:56;6.10;;;4.63;;
71836;SDS011;59686;51.716;7.016;2022-11-15T04:27:21;4.97;;;4.17;;
71836;SDS011;59686;51.716;7.016;2022-11-15T04:29:47;5.93;;;4.53;;
71836;SDS011;59686;51.716;7.016;2022-11-15T04:32:12;5.20;;;4.57;;
71836;SDS011;59686;51.716;7.016;2022-11-15T04:34:38;5.37;;;4.47;;
71836;SDS011;59686;51.716;7.016;2022-11-15T04:37:04;5.63;;;4.67;;
71836;SDS011;59686;51.716;7.016;2022-11-15T04:39:41;4.83;;;4.23;;
71836;SDS011;59686;51.716;7.016;2022-11-15T04:42:08;4.80;;;4.17;;
71836;SDS011;59686;51.716;7.016;2022-11-15T04:44:35;5.47;;;4.70;;
71836;SDS011;59686;51.716;7.016;2022-11-15T04:47:01;6.53;;;4.20;;
71836;SDS011;59686;51.716;7.016;2022-11-15T04:49:27;5.27;;;3.97;;
71836;SDS011;59686;51.716;7.016;2022-11-15T04:51:53;5.53;;;4.60;;
71836;SDS011;59686;51.716;7.016;2022-11-15T04:54:18;4.80;;;4.30;;
71836;SDS011;59686;51.716;7.016;2022-11-15T04:56:44;4.13;;;3.50;;
71836;SDS011;59686;51.716;7.016;2022-11-15T04:59:10;7.17;;;4.13;;
71836;SDS011;59686;51.716;7.016;2022-11-15T05:01:35;4.87;;;3.90;;
71836;SDS011;59686;51.716;7.016;2022-11-15T05:04:01;4.37;;;3.90;;
71836;SDS011;59686;51.716;7.016;2022-11-15T05:06:49;5.20;;;3.77;;
71836;SDS011;59686;51.716;7.016;2022-11-15T05:09:16;4.90;;;4.40;;
71836;SDS011;59686;51.716;7.016;2022-11-15T05:11:45;5.53;;;4.27;;
71836;SDS011;59686;51.716;7.016;2022-11-15T05:14:14;4.70;;;4.03;;
71836;SDS011;59686;51.716;7.016;2022-11-15T05:16:40;4.03;;;3.47;;
71836;SDS011;59686;51.716;7.016;2022-11-15T05:19:06;6.60;;;4.10;;
71836;SDS011;59686;51.716;7.016;2022-11-15T05:21:32;5.07;;;3.90;;
71836;SDS011;59686;51.716;7.016;2022-11-15T05:23:58;5.60;;;3.77;;
71836;SDS011;59686;51.716;7.016;2022-11-15T05:26:24;4.60;;;3.70;;
71836;SDS011;59686;51.716;7.016;2022-11-15T05:28:54;5.13;;;3.87;;
71836;SDS011;59686;51.716;7.016;2022-11-15T05:31:21;4.90;;;3.80;;
71836;SDS011;59686;51.716;7.016;2022-11-15T05:33:48;5.17;;;3.97;;
71836;SDS011;59686;51.716;7.016;2022-11-15T05:39:00;6.07;;;4.07;;
71836;SDS011;59686;51.716;7.016;2022-11-15T05:41:32;6.07;;;4.13;;
71836;SDS011;59686;51.716;7.016;2022-11-15T05:44:00;4.00;;;3.60;;
71836;SDS011;59686;51.716;7.016;2022-11-15T05:46:26;5.63;;;3.93;;
71836;SDS011;59686;51.716;7.016;2022-11-15T05:48:53;4.10;;;3.70;;
71836;SDS011;59686;51.716;7.016;2022-11-15T05:51:20;4.27;;;3.87;;
71836;SDS011;59686;51.716;7.016;2022-11-15T05:53:47;4.30;;;3.47;;
71836;SDS011;59686;51.716;7.016;2022-11-15T05:56:14;5.07;;;3.63;;
71836;SDS011;59686;51.716;7.016;2022-11-15T05:58:40;4.20;;;3.17;;
71836;SDS011;59686;51.716;7.016;2022-11-15T06:01:06;4.37;;;3.97;;
71836;SDS011;59686;51.716;7.016;2022-11-15T06:03:32;4.53;;;3.90;;
71836;SDS011;59686;51.716;7.016;2022-11-15T06:05:58;4.50;;;3.60;;
71836;SDS011;59686;51.716;7.016;2022-11-15T06:08:23;4.10;;;3.60;;
71836;SDS011;59686;51.716;7.016;2022-11-15T06:10:49;4.27;;;3.70;;
71836;SDS011;59686;51.716;7.016;2022-11-15T06:13:15;6.33;;;4.00;;
71836;SDS011;59686;51.716;7.016;2022-11-15T06:15:40;5.63;;;3.33;;
71836;SDS011;59686;51.716;7.016;2022-11-15T06:18:06;5.23;;;3.80;;
71836;SDS011;59686;51.716;7.016;2022-11-15T06:20:32;4.13;;;3.60;;
71836;SDS011;59686;51.716;7.016;2022-11-15T06:22:58;5.03;;;3.80;;
71836;SDS011;59686;51.716;7.016;2022-11-15T06:25:25;4.20;;;3.50;;
71836;SDS011;59686;51.716;7.016;2022-11-15T06:27:55;4.83;;;3.77;;
71836;SDS011;59686;51.716;7.016;2022-11-15T06:30:21;4.73;;;3.70;;
71836;SDS011;59686;51.716;7.016;2022-11-15T06:32:48;3.80;;;3.37;;
71836;SDS011;59686;51.716;7.016;2022-11-15T06:35:19;4.33;;;3.63;;
71836;SDS011;59686;51.716;7.016;2022-11-15T06:37:44;5.97;;;3.53;;
71836;SDS011;59686;51.716;7.016;2022-11-15T06:40:10;3.57;;;2.97;;
71836;SDS011;59686;51.716;7.016;2022-11-15T06:42:36;5.33;;;3.50;;
71836;SDS011;59686;51.716;7.016;2022-11-15T06:45:02;3.77;;;3.10;;
71836;SDS011;59686;51.716;7.016;2022-11-15T06:47:28;4.87;;;3.77;;
71836;SDS011;59686;51.716;7.016;2022-11-15T06:49:53;4.67;;;3.27;;
71836;SDS011;59686;51.716;7.016;2022-11-15T06:52:19;4.50;;;3.27;;
71836;SDS011;59686;51.716;7.016;2022-11-15T06:54:46;4.07;;;3.53;;
71836;SDS011;59686;51.716;7.016;2022-11-15T06:57:12;3.83;;;3.37;;
71836;SDS011;59686;51.716;7.016;2022-11-15T06:59:38;3.90;;;3.13;;
71836;SDS011;59686;51.716;7.016;2022-11-15T07:02:03;5.37;;;3.43;;
71836;SDS011;59686;51.716;7.016;2022-11-15T07:04:29;4.73;;;3.50;;
71836;SDS011;59686;51.716;7.016;2022-11-15T07:06:55;3.87;;;3.47;;
71836;SDS011;59686;51.716;7.016;2022-11-15T07:09:20;3.87;;;3.30;;
71836;SDS011;59686;51.716;7.016;2022-11-15T07:11:48;4.77;;;3.37;;
71836;SDS011;59686;51.716;7.016;2022-11-15T07:14:14;4.67;;;3.30;;
71836;SDS011;59686;51.716;7.016;2022-11-15T07:16:39;3.80;;;3.03;;
71836;SDS011;59686;51.716;7.016;2022-11-15T07:19:05;4.40;;;3.50;;
71836;SDS011;59686;51.716;7.016;2022-11-15T07:21:42;5.17;;;3.77;;
71836;SDS011;59686;51.716;7.016;2022-11-15T07:24:08;5.57;;;3.30;;
71836;SDS011;59686;51.716;7.016;2022-11-15T07:26:33;4.33;;;3.40;;
71836;SDS011;59686;51.716;7.016;2022-11-15T07:28:59;4.63;;;3.50;;
71836;SDS011;59686;51.716;7.016;2022-11-15T07:31:25;4.20;;;3.00;;
71836;SDS011;59686;51.716;7.016;2022-11-15T07:33:50;5.00;;;3.60;;
71836;SDS011;59686;51.716;7.016;2022-11-15T07:36:16;5.33;;;3.67;;
71836;SDS011;59686;51.716;7.016;2022-11-15T07:38:42;4.37;;;3.50;;
71836;SDS011;59686;51.716;7.016;2022-11-15T07:41:07;4.67;;;3.63;;
71836;SDS011;59686;51.716;7.016;2022-11-15T07:43:33;3.67;;;3.30;;
71836;SDS011;59686;51.716;7.016;2022-11-15T07:45:59;3.80;;;3.40;;
71836;SDS011;59686;51.716;7.016;2022-11-15T07:48:30;5.17;;;3.33;;
71836;SDS011;59686;51.716;7.016;2022-11-15T07:50:56;4.23;;;3.47;;
71836;SDS011;59686;51.716;7.016;2022-11-15T07:53:22;4.80;;;3.00;;
71836;SDS011;59686;51.716;7.016;2022-11-15T07:55:47;4.23;;;3.00;;
71836;SDS011;59686;51.716;7.016;2022-11-15T07:58:13;3.53;;;3.23;;
71836;SDS011;59686;51.716;7.016;2022-11-15T08:03:11;3.30;;;2.90;;
71836;SDS011;59686;51.716;7.016;2022-11-15T08:05:39;6.17;;;3.13;;
71836;SDS011;59686;51.716;7.016;2022-11-15T08:08:07;3.00;;;2.70;;
71836;SDS011;59686;51.716;7.016;2022-11-15T08:10:34;4.20;;;2.90;;
71836;SDS011;59686;51.716;7.016;2022-11-15T08:13:01;3.20;;;2.60;;
71836;SDS011;59686;51.716;7.016;2022-11-15T08:15:29;3.47;;;2.97;;
71836;SDS011;59686;51.716;7.016;2022-11-15T08:17:56;3.60;;;3.00;;
71836;SDS011;59686;51.716;7.016;2022-11-15T08:20:22;4.00;;;2.80;;
71836;SDS011;59686;51.716;7.016;2022-11-15T08:22:49;3.80;;;2.73;;
71836;SDS011;59686;51.716;7.016;2022-11-15T08:25:15;4.67;;;2.80;;
71836;SDS011;59686;51.716;7.016;2022-11-15T08:27:41;2.90;;;2.60;;
71836;SDS011;59686;51.716;7.016;2022-11-15T08:30:07;3.00;;;2.70;;
71836;SDS011;59686;51.716;7.016;2022-11-15T08:32:33;4.37;;;2.60;;
71836;SDS011;59686;51.716;7.016;2022-11-15T08:34:59;3.67;;;2.53;;
71836;SDS011;59686;51.716;7.016;2022-11-15T08:37:24;3.57;;;2.60;;
71836;SDS011;59686;51.716;7.016;2022-11-15T08:39:50;3.17;;;2.70;;
71836;SDS011;59686;51.716;7.016;2022-11-15T08:42:15;5.07;;;2.70;;
71836;SDS011;59686;51.716;7.016;2022-11-15T08:44:41;4.00;;;2.70;;
71836;SDS011;59686;51.716;7.016;2022-11-15T08:47:07;4.60;;;2.50;;
71836;SDS011;59686;51.716;7.016;2022-11-15T08:49:36;3.27;;;2.50;;
71836;SDS011;59686;51.716;7.016;2022-11-15T08:52:01;3.10;;;2.70;;
71836;SDS011;59686;51.716;7.016;2022-11-15T08:54:27;2.53;;;2.17;;
71836;SDS011;59686;51.716;7.016;2022-11-15T08:56:53;3.63;;;2.70;;
71836;SDS011;59686;51.716;7.016;2022-11-15T08:59:29;2.00;;;1.70;;
71836;SDS011;59686;51.716;7.016;2022-11-15T09:01:54;3.20;;;2.10;;
71836;SDS011;59686;51.716;7.016;2022-11-15T09:04:20;2.47;;;1.93;;
71836;SDS011;59686;51.716;7.016;2022-11-15T09:06:46;3.03;;;1.90;;
71836;SDS011;59686;51.716;7.016;2022-11-15T09:09:11;1.93;;;1.73;;
71836;SDS011;59686;51.716;7.016;2022-11-15T09:11:37;2.67;;;1.90;;
71836;SDS011;59686;51.716;7.016;2022-11-15T09:14:02;2.07;;;1.80;;
71836;SDS011;59686;51.716;7.016;2022-11-15T09:16:37;2.07;;;1.70;;
71836;SDS011;59686;51.716;7.016;2022-11-15T09:19:03;2.80;;;1.70;;
71836;SDS011;59686;51.716;7.016;2022-11-15T09:21:29;1.87;;;1.50;;
71836;SDS011;59686;51.716;7.016;2022-11-15T09:23:55;3.00;;;1.70;;
71836;SDS011;59686;51.716;7.016;2022-11-15T09:26:21;2.57;;;1.70;;
71836;SDS011;59686;51.716;7.016;2022-11-15T09:28:48;2.13;;;1.70;;
71836;SDS011;59686;51.716;7.016;2022-11-15T09:31:14;2.30;;;1.60;;
71836;SDS011;59686;51.716;7.016;2022-11-15T09:33:39;2.83;;;1.63;;
71836;SDS011;59686;51.716;7.016;2022-11-15T09:36:08;2.73;;;1.57;;
71836;SDS011;59686;51.716;7.016;2022-11-15T09:38:34;3.07;;;1.60;;
71836;SDS011;59686;51.716;7.016;2022-11-15T09:43:58;2.40;;;1.63;;
71836;SDS011;59686;51.716;7.016;2022-11-15T09:46:56;3.20;;;1.80;;
71836;SDS011;59686;51.716;7.016;2022-11-15T09:49:29;2.23;;;1.60;;
71836;SDS011;59686;51.716;7.016;2022-11-15T09:51:56;1.93;;;1.40;;
71836;SDS011;59686;51.716;7.016;2022-11-15T09:56:52;3.10;;;1.60;;
71836;SDS011;59686;51.716;7.016;2022-11-15T10:04:32;3.13;;;1.97;;
71836;SDS011;59686;51.716;7.016;2022-11-15T10:10:00;2.33;;;1.70;;
71836;SDS011;59686;51.716;7.016;2022-11-15T10:12:39;4.00;;;1.67;;
71836;SDS011;59686;51.716;7.016;2022-11-15T10:15:11;1.83;;;1.43;;
71836;SDS011;59686;51.716;7.016;2022-11-15T10:20:58;2.97;;;1.70;;
71836;SDS011;59686;51.716;7.016;2022-11-15T10:23:25;2.23;;;1.60;;
71836;SDS011;59686;51.716;7.016;2022-11-15T10:25:58;3.03;;;1.90;;
71836;SDS011;59686;51.716;7.016;2022-11-15T10:28:31;2.30;;;1.87;;
71836;SDS011;59686;51.716;7.016;2022-11-15T10:30:57;3.37;;;1.70;;
71836;SDS011;59686;51.716;7.016;2022-11-15T10:38:55;2.13;;;1.60;;
71836;SDS011;59686;51.716;7.016;2022-11-15T10:46:42;2.70;;;2.10;;
71836;SDS011;59686;51.716;7.016;2022-11-15T10:49:29;3.50;;;2.23;;
71836;SDS011;59686;51.716;7.016;2022-11-15T10:54:41;1.93;;;1.70;;
71836;SDS011;59686;51.716;7.016;2022-11-15T10:57:22;2.07;;;1.80;;
71836;SDS011;59686;51.716;7.016;2022-11-15T10:59:51;2.07;;;1.70;;
71836;SDS011;59686;51.716;7.016;2022-11-15T11:02:27;2.43;;;1.83;;
71836;SDS011;59686;51.716;7.016;2022-11-15T11:05:01;2.80;;;1.90;;
71836;SDS011;59686;51.716;7.016;2022-11-15T11:07:30;3.00;;;1.77;;
71836;SDS011;59686;51.716;7.016;2022-11-15T11:09:59;5.30;;;1.87;;
71836;SDS011;59686;51.716;7.016;2022-11-15T11:12:31;3.60;;;1.80;;
71836;SDS011;59686;51.716;7.016;2022-11-15T11:14:59;2.17;;;1.90;;
71836;SDS011;59686;51.716;7.016;2022-11-15T11:20:59;3.00;;;1.83;;
71836;SDS011;59686;51.716;7.016;2022-11-15T11:31:24;3.20;;;1.93;;
71836;SDS011;59686;51.716;7.016;2022-11-15T11:34:04;3.00;;;1.80;;
71836;SDS011;59686;51.716;7.016;2022-11-15T11:36:47;2.13;;;1.80;;
71836;SDS011;59686;51.716;7.016;2022-11-15T11:39:23;3.10;;;1.57;;
71836;SDS011;59686;51.716;7.016;2022-11-15T11:47:39;2.77;;;1.50;;
71836;SDS011;59686;51.716;7.016;2022-11-15T11:50:18;2.23;;;1.90;;
71836;SDS011;59686;51.716;7.016;2022-11-15T11:55:27;3.20;;;1.77;;
71836;SDS011;59686;51.716;7.016;2022-11-15T11:58:02;2.87;;;1.90;;
71836;SDS011;59686;51.716;7.016;2022-11-15T12:03:40;1.93;;;1.67;;
71836;SDS011;59686;51.716;7.016;2022-11-15T12:09:21;2.33;;;1.80;;
71836;SDS011;59686;51.716;7.016;2022-11-15T12:11:57;3.83;;;1.60;;
71836;SDS011;59686;51.716;7.016;2022-11-15T12:17:20;2.03;;;1.50;;
71836;SDS011;59686;51.716;7.016;2022-11-15T12:19:48;2.03;;;1.37;;
71836;SDS011;59686;51.716;7.016;2022-11-15T12:22:22;2.97;;;1.70;;
71836;SDS011;59686;51.716;7.016;2022-11-15T12:27:43;3.67;;;1.77;;
71836;SDS011;59686;51.716;7.016;2022-11-15T12:30:22;3.77;;;1.50;;
71836;SDS011;59686;51.716;7.016;2022-11-15T12:32:59;3.03;;;1.70;;
71836;SDS011;59686;51.716;7.016;2022-11-15T12:35:28;3.23;;;1.70;;
71836;SDS011;59686;51.716;7.016;2022-11-15T12:37:56;2.10;;;1.57;;
71836;SDS011;59686;51.716;7.016;2022-11-15T12:40:29;2.13;;;1.60;;
71836;SDS011;59686;51.716;7.016;2022-11-15T12:45:42;2.13;;;1.50;;
71836;SDS011;59686;51.716;7.016;2022-11-15T12:58:38;2.20;;;1.30;;
71836;SDS011;59686;51.716;7.016;2022-11-15T13:14:46;1.20;;;1.10;;
71836;SDS011;59686;51.716;7.016;2022-11-15T13:19:47;2.63;;;1.57;;
71836;SDS011;59686;51.716;7.016;2022-11-15T13:22:32;1.97;;;1.33;;
71836;SDS011;59686;51.716;7.016;2022-11-15T13:27:48;1.63;;;1.20;;
71836;SDS011;59686;51.716;7.016;2022-11-15T13:30:20;2.63;;;1.10;;
71836;SDS011;59686;51.716;7.016;2022-11-15T13:32:48;3.37;;;1.40;;
71836;SDS011;59686;51.716;7.016;2022-11-15T13:35:24;2.53;;;1.30;;
71836;SDS011;59686;51.716;7.016;2022-11-15T13:37:52;2.47;;;1.33;;
71836;SDS011;59686;51.716;7.016;2022-11-15T13:42:45;1.67;;;1.30;;
71836;SDS011;59686;51.716;7.016;2022-11-15T13:45:13;4.47;;;1.53;;
71836;SDS011;59686;51.716;7.016;2022-11-15T13:47:40;2.60;;;1.30;;
71836;SDS011;59686;51.716;7.016;2022-11-15T13:50:09;2.90;;;1.47;;
71836;SDS011;59686;51.716;7.016;2022-11-15T13:52:36;2.00;;;1.40;;
71836;SDS011;59686;51.716;7.016;2022-11-15T13:55:10;1.90;;;1.10;;
71836;SDS011;59686;51.716;7.016;2022-11-15T13:57:43;1.97;;;1.10;;
71836;SDS011;59686;51.716;7.016;2022-11-15T14:03:23;3.17;;;1.30;;
71836;SDS011;59686;51.716;7.016;2022-11-15T14:06:13;1.83;;;1.30;;
71836;SDS011;59686;51.716;7.016;2022-11-15T14:08:40;1.80;;;1.40;;
71836;SDS011;59686;51.716;7.016;2022-11-15T14:11:26;1.50;;;1.30;;
71836;SDS011;59686;51.716;7.016;2022-11-15T14:16:40;2.00;;;1.00;;
71836;SDS011;59686;51.716;7.016;2022-11-15T14:19:08;2.07;;;1.30;;
71836;SDS011;59686;51.716;7.016;2022-11-15T14:21:36;2.50;;;1.20;;
71836;SDS011;59686;51.716;7.016;2022-11-15T14:24:18;2.03;;;1.03;;
71836;SDS011;59686;51.716;7.016;2022-11-15T14:26:45;1.80;;;1.13;;
71836;SDS011;59686;51.716;7.016;2022-11-15T14:29:24;2.70;;;1.23;;
71836;SDS011;59686;51.716;7.016;2022-11-15T14:31:55;1.87;;;1.20;;
71836;SDS011;59686;51.716;7.016;2022-11-15T14:34:37;1.50;;;1.10;;
71836;SDS011;59686;51.716;7.016;2022-11-15T14:37:03;2.03;;;1.20;;
71836;SDS011;59686;51.716;7.016;2022-11-15T14:39:28;2.87;;;1.50;;
71836;SDS011;59686;51.716;7.016;2022-11-15T14:41:54;1.57;;;1.00;;
71836;SDS011;59686;51.716;7.016;2022-11-15T14:44:20;3.10;;;1.40;;
71836;SDS011;59686;51.716;7.016;2022-11-15T14:46:46;1.73;;;1.07;;
71836;SDS011;59686;51.716;7.016;2022-11-15T14:49:13;1.90;;;1.20;;
71836;SDS011;59686;51.716;7.016;2022-11-15T14:51:40;2.07;;;1.17;;
71836;SDS011;59686;51.716;7.016;2022-11-15T14:54:09;3.33;;;1.00;;
71836;SDS011;59686;51.716;7.016;2022-11-15T14:56:35;1.70;;;1.03;;
71836;SDS011;59686;51.716;7.016;2022-11-15T14:59:01;2.30;;;1.10;;
71836;SDS011;59686;51.716;7.016;2022-11-15T15:01:26;2.13;;;1.10;;
71836;SDS011;59686;51.716;7.016;2022-11-15T15:03:53;1.50;;;0.90;;
71836;SDS011;59686;51.716;7.016;2022-11-15T15:06:25;1.80;;;1.03;;
71836;SDS011;59686;51.716;7.016;2022-11-15T15:08:51;1.83;;;1.20;;
71836;SDS011;59686;51.716;7.016;2022-11-15T15:11:20;1.80;;;1.30;;
71836;SDS011;59686;51.716;7.016;2022-11-15T15:13:54;0.90;;;0.90;;
71836;SDS011;59686;51.716;7.016;2022-11-15T15:16:22;1.40;;;1.00;;
71836;SDS011;59686;51.716;7.016;2022-11-15T15:18:49;4.60;;;1.40;;
71836;SDS011;59686;51.716;7.016;2022-11-15T15:21:20;4.87;;;1.80;;
71836;SDS011;59686;51.716;7.016;2022-11-15T15:23:52;7.63;;;3.40;;
71836;SDS011;59686;51.716;7.016;2022-11-15T15:26:19;6.47;;;3.10;;
71836;SDS011;59686;51.716;7.016;2022-11-15T15:28:45;18.67;;;8.65;;
71836;SDS011;59686;51.716;7.016;2022-11-15T15:31:11;16.75;;;9.10;;
71836;SDS011;59686;51.716;7.016;2022-11-15T15:33:37;17.93;;;8.70;;
71836;SDS011;59686;51.716;7.016;2022-11-15T15:36:03;19.77;;;10.40;;
71836;SDS011;59686;51.716;7.016;2022-11-15T15:38:28;20.13;;;10.17;;
71836;SDS011;59686;51.716;7.016;2022-11-15T15:40:54;18.50;;;9.70;;
71836;SDS011;59686;51.716;7.016;2022-11-15T15:43:20;17.15;;;9.52;;
71836;SDS011;59686;51.716;7.016;2022-11-15T15:45:45;20.35;;;9.30;;
71836;SDS011;59686;51.716;7.016;2022-11-15T15:48:15;18.48;;;9.15;;
71836;SDS011;59686;51.716;7.016;2022-11-15T15:50:41;14.68;;;7.97;;
71836;SDS011;59686;51.716;7.016;2022-11-15T15:53:24;17.80;;;8.30;;
71836;SDS011;59686;51.716;7.016;2022-11-15T15:55:49;15.77;;;7.78;;
71836;SDS011;59686;51.716;7.016;2022-11-15T15:58:15;15.75;;;7.22;;
71836;SDS011;59686;51.716;7.016;2022-11-15T16:00:41;12.37;;;7.33;;
71836;SDS011;59686;51.716;7.016;2022-11-15T16:03:06;11.23;;;6.38;;
71836;SDS011;59686;51.716;7.016;2022-11-15T16:05:32;12.27;;;6.70;;
71836;SDS011;59686;51.716;7.016;2022-11-15T16:07:58;10.57;;;6.03;;
71836;SDS011;59686;51.716;7.016;2022-11-15T16:10:28;11.80;;;6.53;;
71836;SDS011;59686;51.716;7.016;2022-11-15T16:12:55;8.90;;;5.57;;
71836;SDS011;59686;51.716;7.016;2022-11-15T16:15:23;8.27;;;5.20;;
71836;SDS011;59686;51.716;7.016;2022-11-15T16:17:51;11.23;;;6.05;;
71836;SDS011;59686;51.716;7.016;2022-11-15T16:20:31;9.10;;;5.27;;
71836;SDS011;59686;51.716;7.016;2022-11-15T16:23:10;9.00;;;5.47;;
71836;SDS011;59686;51.716;7.016;2022-11-15T16:28:31;7.60;;;5.00;;
71836;SDS011;59686;51.716;7.016;2022-11-15T16:31:02;8.43;;;4.60;;
71836;SDS011;59686;51.716;7.016;2022-11-15T16:33:30;9.43;;;4.40;;
71836;SDS011;59686;51.716;7.016;2022-11-15T16:35:56;8.10;;;4.38;;
71836;SDS011;59686;51.716;7.016;2022-11-15T16:38:21;7.18;;;4.30;;
71836;SDS011;59686;51.716;7.016;2022-11-15T16:40:48;5.27;;;3.70;;
71836;SDS011;59686;51.716;7.016;2022-11-15T16:43:14;6.60;;;4.17;;
71836;SDS011;59686;51.716;7.016;2022-11-15T16:45:40;6.87;;;4.23;;
71836;SDS011;59686;51.716;7.016;2022-11-15T16:48:06;7.47;;;4.10;;
71836;SDS011;59686;51.716;7.016;2022-11-15T16:50:39;5.65;;;3.60;;
71836;SDS011;59686;51.716;7.016;2022-11-15T16:53:05;7.73;;;3.83;;
71836;SDS011;59686;51.716;7.016;2022-11-15T16:55:32;5.40;;;3.58;;
71836;SDS011;59686;51.716;7.016;2022-11-15T16:57:57;4.97;;;3.70;;
71836;SDS011;59686;51.716;7.016;2022-11-15T17:00:23;5.15;;;3.65;;
71836;SDS011;59686;51.716;7.016;2022-11-15T17:02:49;7.30;;;4.00;;
71836;SDS011;59686;51.716;7.016;2022-11-15T17:05:20;6.28;;;3.38;;
71836;SDS011;59686;51.716;7.016;2022-11-15T17:07:47;4.18;;;3.25;;
71836;SDS011;59686;51.716;7.016;2022-11-15T17:10:16;5.47;;;3.50;;
71836;SDS011;59686;51.716;7.016;2022-11-15T17:12:42;6.28;;;3.53;;
71836;SDS011;59686;51.716;7.016;2022-11-15T17:15:08;5.82;;;3.35;;
71836;SDS011;59686;51.716;7.016;2022-11-15T17:17:36;3.88;;;3.00;;
71836;SDS011;59686;51.716;7.016;2022-11-15T17:20:02;4.32;;;3.35;;
71836;SDS011;59686;51.716;7.016;2022-11-15T17:22:29;4.63;;;3.17;;
71836;SDS011;59686;51.716;7.016;2022-11-15T17:24:55;6.15;;;3.13;;
71836;SDS011;59686;51.716;7.016;2022-11-15T17:27:21;4.45;;;2.80;;